Time;durP1;ratioP1;P1;durP2;ratioP2;P2;SDS_P1;SDS_P2;PMS_P1;PMS_P2;Temp;Humidity;BMP_temperature;BMP_pressure;BME280_temperature;BME280_humidity;BME280_pressure;Samples;Min_cycle;Max_cycle;Signal;HPM_P1;HPM_P2
2021/12/31 00:00:11;;;;;;;2.10;0.90;;;13.20;99.90;;;;;;4879871;29;20488;-75
2021/12/31 00:02:37;;;;;;;0.87;0.87;;;13.20;99.90;;;;;;4880132;29;20959;-75
2021/12/31 00:05:04;;;;;;;1.10;1.00;;;13.30;99.90;;;;;;4878567;29;20431;-75
2021/12/31 00:07:30;;;;;;;3.13;0.73;;;13.20;99.90;;;;;;4880016;29;20424;-75
2021/12/31 00:10:00;;;;;;;1.00;0.87;;;13.20;99.90;;;;;;4879986;29;20423;-74
2021/12/31 00:12:26;;;;;;;1.07;0.70;;;13.20;99.90;;;;;;4880105;29;20203;-75
2021/12/31 00:14:51;;;;;;;0.77;0.77;;;13.10;99.90;;;;;;4878370;29;20427;-75
2021/12/31 00:17:17;;;;;;;0.70;0.70;;;13.20;99.90;;;;;;4878607;29;20463;-74
2021/12/31 00:19:45;;;;;;;1.23;0.77;;;13.20;99.90;;;;;;4878502;29;20311;-74
2021/12/31 00:22:37;;;;;;;0.80;0.80;;;13.20;99.90;;;;;;4878477;29;20199;-74
2021/12/31 00:24:57;;;;;;;1.42;1.00;;;13.20;99.90;;;;;;4878883;29;20424;-74
2021/12/31 00:27:22;;;;;;;1.93;1.10;;;13.20;99.90;;;;;;4879782;29;20202;-74
2021/12/31 00:29:48;;;;;;;2.37;0.93;;;13.10;99.90;;;;;;4879398;29;20813;-74
2021/12/31 00:32:13;;;;;;;1.77;0.80;;;13.10;99.90;;;;;;4878331;29;20215;-74
2021/12/31 00:34:39;;;;;;;1.23;0.73;;;13.00;99.90;;;;;;4878639;29;20201;-74
2021/12/31 00:37:04;;;;;;;2.83;1.00;;;13.00;99.90;;;;;;4879346;29;20219;-74
2021/12/31 00:39:30;;;;;;;1.20;0.90;;;13.00;99.90;;;;;;4879462;29;20772;-73
2021/12/31 00:41:55;;;;;;;1.93;1.00;;;13.10;99.90;;;;;;4879215;29;20222;-74
2021/12/31 00:44:21;;;;;;;3.03;1.07;;;13.10;99.90;;;;;;4879239;29;20207;-74
2021/12/31 00:46:47;;;;;;;1.97;1.37;;;13.00;99.90;;;;;;4879209;29;20662;-74
2021/12/31 00:49:14;;;;;;;1.37;1.13;;;13.00;99.90;;;;;;4879490;29;20645;-74
2021/12/31 00:51:40;;;;;;;1.97;1.50;;;13.00;99.90;;;;;;4879225;29;20444;-74
2021/12/31 00:54:05;;;;;;;1.30;1.00;;;13.00;99.90;;;;;;4879073;29;20435;-74
2021/12/31 00:56:31;;;;;;;1.53;1.17;;;13.00;99.90;;;;;;4879314;29;20463;-74
2021/12/31 00:58:56;;;;;;;1.53;1.20;;;12.90;99.90;;;;;;4878922;29;20203;-74
2021/12/31 05:31:12;;;;;;;4.07;1.40;;;7.80;99.90;;;;;;5725294;23;20789;-71
2021/12/31 05:33:37;;;;;;;3.13;0.97;;;7.80;99.90;;;;;;4894435;29;20437;-74
2021/12/31 05:36:03;;;;;;;1.57;1.40;;;7.80;99.90;;;;;;4896702;29;20304;-73
2021/12/31 05:38:29;;;;;;;2.00;1.13;;;7.70;99.90;;;;;;4897545;29;20188;-74
2021/12/31 05:40:54;;;;;;;1.33;1.23;;;7.60;99.90;;;;;;4897021;29;20236;-74
2021/12/31 05:43:20;;;;;;;1.53;1.10;;;7.60;99.90;;;;;;4897740;29;20185;-73
2021/12/31 05:45:45;;;;;;;1.00;1.00;;;7.60;99.90;;;;;;4896700;29;20225;-74
2021/12/31 05:48:11;;;;;;;2.27;1.30;;;7.50;99.90;;;;;;4897011;29;20207;-73
2021/12/31 05:50:37;;;;;;;1.90;1.40;;;7.50;99.90;;;;;;4896092;29;20613;-74
2021/12/31 05:53:02;;;;;;;2.40;1.37;;;7.50;99.90;;;;;;4896834;29;20406;-74
2021/12/31 05:55:28;;;;;;;1.30;1.20;;;7.40;99.90;;;;;;4896646;29;20203;-74
2021/12/31 05:57:55;;;;;;;3.80;1.50;;;7.40;99.90;;;;;;4896927;29;20179;-73
2021/12/31 06:00:22;;;;;;;4.50;1.67;;;7.30;99.90;;;;;;4896670;29;20187;-74
2021/12/31 06:02:48;;;;;;;4.63;1.13;;;7.30;99.90;;;;;;4896156;29;20473;-73
2021/12/31 06:05:13;;;;;;;1.40;1.40;;;7.20;99.90;;;;;;4896421;29;20427;-74
2021/12/31 06:07:39;;;;;;;1.40;1.30;;;7.20;99.90;;;;;;4896616;29;20288;-74
2021/12/31 06:10:05;;;;;;;3.07;1.20;;;7.20;99.90;;;;;;4896503;29;20668;-73
2021/12/31 06:12:33;;;;;;;2.27;1.80;;;7.20;99.90;;;;;;4896487;29;20580;-74
2021/12/31 06:15:02;;;;;;;1.43;1.23;;;7.20;99.90;;;;;;4896498;29;20475;-74
2021/12/31 06:17:28;;;;;;;3.93;2.60;;;7.20;99.90;;;;;;4896505;29;20529;-73
2021/12/31 06:19:55;;;;;;;3.20;2.53;;;7.20;99.90;;;;;;4896500;29;20531;-72
2021/12/31 06:22:21;;;;;;;7.70;1.53;;;7.10;99.90;;;;;;4896409;29;20204;-74
2021/12/31 06:24:47;;;;;;;5.10;1.53;;;7.10;99.90;;;;;;4896321;29;20419;-74
2021/12/31 06:27:12;;;;;;;1.30;1.20;;;7.00;99.90;;;;;;4896218;29;20431;-74
2021/12/31 06:29:38;;;;;;;4.63;1.63;;;7.00;99.90;;;;;;4895380;29;20198;-74
2021/12/31 06:32:04;;;;;;;3.10;2.30;;;6.90;99.90;;;;;;4895996;29;20689;-71
2021/12/31 06:34:30;;;;;;;3.00;2.30;;;6.90;99.90;;;;;;4896436;29;20658;-74
2021/12/31 06:36:55;;;;;;;2.30;2.10;;;6.80;99.90;;;;;;4896502;29;20470;-74
2021/12/31 06:39:21;;;;;;;4.43;1.93;;;6.90;99.90;;;;;;4896222;29;20215;-73
2021/12/31 06:41:47;;;;;;;2.73;2.10;;;6.90;99.90;;;;;;4896307;29;20195;-74
2021/12/31 06:44:13;;;;;;;7.97;3.73;;;6.80;99.90;;;;;;4896113;29;20556;-74
2021/12/31 06:46:39;;;;;;;2.33;2.03;;;6.80;99.90;;;;;;4896484;29;20182;-74
2021/12/31 06:49:05;;;;;;;2.60;2.30;;;6.80;99.90;;;;;;4896233;29;20969;-73
2021/12/31 06:51:31;;;;;;;2.63;2.43;;;6.70;99.90;;;;;;4896469;29;20450;-74
2021/12/31 06:53:56;;;;;;;2.07;1.87;;;6.70;99.90;;;;;;4896089;29;20277;-72
2021/12/31 06:56:22;;;;;;;3.90;2.50;;;6.70;99.90;;;;;;4896327;29;20211;-74
2021/12/31 06:58:47;;;;;;;7.40;3.33;;;6.60;99.90;;;;;;4895103;29;20557;-74
2021/12/31 07:01:13;;;;;;;2.00;1.90;;;6.60;99.90;;;;;;4896149;29;20621;-73
2021/12/31 07:03:38;;;;;;;2.43;2.23;;;6.60;99.90;;;;;;4896205;29;20206;-74
2021/12/31 07:06:04;;;;;;;9.73;2.33;;;6.60;99.90;;;;;;4896170;29;20182;-72
2021/12/31 07:08:29;;;;;;;2.00;1.80;;;6.60;99.90;;;;;;4896249;29;20183;-74
2021/12/31 07:10:55;;;;;;;3.70;2.27;;;6.60;99.90;;;;;;4895957;29;20199;-74
2021/12/31 07:13:21;;;;;;;4.50;2.30;;;6.60;99.90;;;;;;4895873;29;20198;-73
2021/12/31 07:15:49;;;;;;;2.30;2.10;;;6.50;99.90;;;;;;4895946;29;20202;-73
2021/12/31 07:18:19;;;;;;;2.60;2.20;;;6.60;99.90;;;;;;4896001;29;20394;-74
2021/12/31 07:20:45;;;;;;;4.23;1.50;;;6.60;99.90;;;;;;4895687;29;20415;-72
2021/12/31 07:23:13;;;;;;;5.90;4.77;;;6.60;99.90;;;;;;4895598;29;20393;-74
2021/12/31 07:25:40;;;;;;;4.17;2.93;;;6.60;99.90;;;;;;4895829;29;20898;-74
2021/12/31 07:28:07;;;;;;;2.43;1.67;;;6.70;99.90;;;;;;4895896;29;20904;-73
2021/12/31 07:30:32;;;;;;;2.13;1.93;;;6.70;99.90;;;;;;4894520;29;20430;-77
2021/12/31 07:32:58;;;;;;;2.90;2.03;;;6.70;99.90;;;;;;4895869;29;21131;-76
2021/12/31 07:35:25;;;;;;;2.27;2.03;;;6.70;99.90;;;;;;4895981;29;20193;-77
2021/12/31 07:37:56;;;;;;;2.90;2.00;;;6.70;99.90;;;;;;4896063;29;20214;-76
2021/12/31 07:40:36;;;;;;;2.33;2.13;;;6.70;99.90;;;;;;4898971;29;20398;-77
2021/12/31 07:43:02;;;;;;;4.47;2.17;;;6.70;99.90;;;;;;4899028;29;20498;-79
2021/12/31 07:45:28;;;;;;;3.43;2.30;;;6.70;99.90;;;;;;4899401;29;21083;-76
2021/12/31 07:47:53;;;;;;;2.40;2.20;;;6.70;99.90;;;;;;4890089;29;20474;-74
2021/12/31 07:50:19;;;;;;;4.93;1.97;;;6.70;99.90;;;;;;4893413;29;20224;-76
2021/12/31 07:52:44;;;;;;;2.93;1.70;;;6.70;99.90;;;;;;4898200;29;20210;-73
2021/12/31 07:55:10;;;;;;;2.00;1.83;;;6.70;99.90;;;;;;4898543;29;20391;-77
2021/12/31 07:57:36;;;;;;;3.20;2.03;;;6.80;99.90;;;;;;4898470;29;20592;-77
2021/12/31 08:00:02;;;;;;;4.60;1.90;;;6.80;99.90;;;;;;4898298;29;20286;-77
2021/12/31 08:02:27;;;;;;;3.40;2.10;;;6.80;99.90;;;;;;4898220;29;20225;-77
2021/12/31 08:04:53;;;;;;;2.73;1.90;;;6.90;99.90;;;;;;4898277;29;20431;-80
2021/12/31 08:07:18;;;;;;;3.40;2.70;;;6.90;99.90;;;;;;4898837;29;20266;-79
2021/12/31 08:09:44;;;;;;;9.70;2.93;;;6.90;99.90;;;;;;4898577;29;20594;-79
2021/12/31 08:12:09;;;;;;;4.53;2.53;;;7.00;99.90;;;;;;4898460;29;20218;-78
2021/12/31 08:14:35;;;;;;;3.90;3.00;;;7.10;99.90;;;;;;4898593;29;20676;-77
2021/12/31 08:17:00;;;;;;;4.63;3.47;;;7.20;99.90;;;;;;4898750;29;20283;-78
2021/12/31 08:19:26;;;;;;;3.03;2.60;;;7.20;99.90;;;;;;4899205;29;20230;-80
2021/12/31 08:21:51;;;;;;;4.10;3.60;;;7.40;99.90;;;;;;4903364;29;20202;-76
2021/12/31 08:24:17;;;;;;;3.70;2.70;;;7.40;99.90;;;;;;4903196;29;20286;-79
2021/12/31 08:26:42;;;;;;;3.37;2.60;;;7.50;99.90;;;;;;4901605;29;20198;-79
2021/12/31 08:29:12;;;;;;;3.03;2.83;;;7.50;99.90;;;;;;4903260;29;20215;-81
2021/12/31 08:31:38;;;;;;;2.47;2.27;;;7.60;99.90;;;;;;4901014;29;20256;-79
2021/12/31 08:34:03;;;;;;;3.23;2.83;;;7.60;99.90;;;;;;4898359;29;20815;-80
2021/12/31 08:36:29;;;;;;;2.87;2.57;;;7.60;99.90;;;;;;4899642;29;20859;-82
2021/12/31 08:38:55;;;;;;;3.63;3.30;;;7.70;99.90;;;;;;4900655;29;20212;-79
2021/12/31 08:41:20;;;;;;;3.13;2.80;;;7.90;99.90;;;;;;4898053;29;20225;-77
2021/12/31 08:43:46;;;;;;;2.90;2.33;;;7.90;99.90;;;;;;4897773;29;20525;-79
2021/12/31 08:46:11;;;;;;;3.77;3.43;;;8.00;99.90;;;;;;4897431;29;20224;-78
2021/12/31 08:48:37;;;;;;;3.33;3.03;;;8.10;99.90;;;;;;4896588;29;20268;-78
2021/12/31 08:51:02;;;;;;;3.40;3.10;;;8.20;99.90;;;;;;4896078;29;20300;-77
2021/12/31 08:53:28;;;;;;;6.60;4.07;;;8.30;99.90;;;;;;4897483;29;20235;-76
2021/12/31 08:55:53;;;;;;;6.57;4.50;;;8.60;99.90;;;;;;4897341;29;20233;-76
2021/12/31 08:58:19;;;;;;;6.33;4.50;;;8.80;99.90;;;;;;4897508;29;20689;-76
2021/12/31 09:00:44;;;;;;;5.60;4.60;;;8.90;99.90;;;;;;4916124;29;20184;-77
2021/12/31 09:03:10;;;;;;;8.70;3.80;;;9.10;99.90;;;;;;4916352;29;20185;-77
2021/12/31 09:05:35;;;;;;;3.77;3.20;;;9.30;99.90;;;;;;4916447;29;20176;-76
2021/12/31 09:08:01;;;;;;;3.53;3.23;;;9.40;99.90;;;;;;4916504;29;20171;-76
2021/12/31 09:10:27;;;;;;;4.80;3.63;;;9.60;99.90;;;;;;4915078;29;20220;-77
2021/12/31 09:12:52;;;;;;;4.30;3.90;;;9.80;99.90;;;;;;4902035;29;20184;-76
2021/12/31 09:15:18;;;;;;;3.40;3.10;;;9.90;99.90;;;;;;4893696;29;20272;-77
2021/12/31 09:17:44;;;;;;;2.93;2.63;;;10.10;99.90;;;;;;4893825;29;20209;-77
2021/12/31 09:20:10;;;;;;;4.33;3.03;;;10.70;99.90;;;;;;4895162;29;20190;-77
2021/12/31 09:22:36;;;;;;;4.80;3.93;;;11.50;99.90;;;;;;4888774;29;20447;-75
2021/12/31 09:25:02;;;;;;;4.47;3.67;;;12.40;99.90;;;;;;4878624;29;20412;-78
2021/12/31 09:27:28;;;;;;;4.80;3.37;;;13.10;99.90;;;;;;4893212;29;20183;-78
2021/12/31 09:29:54;;;;;;;6.73;3.80;;;13.90;99.90;;;;;;4895275;29;20452;-77
2021/12/31 09:32:20;;;;;;;5.20;4.30;;;14.40;99.90;;;;;;4895314;29;20490;-77
2021/12/31 09:34:48;;;;;;;4.70;3.83;;;14.20;99.90;;;;;;4896717;29;20772;-79
2021/12/31 09:37:15;;;;;;;5.30;4.80;;;14.70;99.90;;;;;;4897044;29;20505;-79
2021/12/31 09:39:41;;;;;;;5.13;4.27;;;14.90;99.90;;;;;;4895737;29;20419;-77
2021/12/31 09:42:08;;;;;;;7.87;3.40;;;15.10;99.90;;;;;;4878630;29;21021;-78
2021/12/31 09:44:35;;;;;;;5.00;4.40;;;15.20;99.90;;;;;;4890914;29;20939;-78
2021/12/31 09:47:07;;;;;;;4.77;3.77;;;15.50;99.90;;;;;;4897014;29;20455;-77
2021/12/31 09:49:37;;;;;;;4.60;3.77;;;15.50;99.90;;;;;;4896766;29;20481;-77
2021/12/31 09:52:03;;;;;;;5.27;3.30;;;15.50;99.90;;;;;;4895352;29;20446;-78
2021/12/31 09:54:28;;;;;;;4.43;3.37;;;15.70;99.90;;;;;;4894330;29;20469;-77
2021/12/31 09:56:54;;;;;;;5.73;3.93;;;15.70;99.90;;;;;;4894853;29;20509;-77
2021/12/31 09:59:21;;;;;;;3.83;3.03;;;15.80;99.90;;;;;;4896455;29;20231;-79
2021/12/31 10:01:49;;;;;;;4.63;3.83;;;15.80;99.90;;;;;;4896513;29;20573;-77
2021/12/31 10:04:14;;;;;;;4.63;3.37;;;16.00;99.90;;;;;;4896598;29;20889;-77
2021/12/31 10:07:12;;;;;;;4.23;3.30;;;16.30;99.90;;;;;;4896584;29;20427;-77
2021/12/31 10:09:40;;;;;;;4.30;3.20;;;16.50;99.90;;;;;;4878216;29;20211;-77
2021/12/31 10:12:06;;;;;;;3.47;3.13;;;16.70;99.90;;;;;;4878245;29;20448;-76
2021/12/31 10:14:37;;;;;;;4.63;3.50;;;16.90;99.90;;;;;;4878068;29;20460;-75
2021/12/31 10:17:04;;;;;;;3.13;2.90;;;17.00;99.90;;;;;;4877992;29;20460;-77
2021/12/31 10:19:30;;;;;;;4.77;3.40;;;16.90;99.90;;;;;;4878075;29;20424;-77
2021/12/31 10:21:56;;;;;;;4.90;3.17;;;16.60;99.90;;;;;;4878052;29;20476;-73
2021/12/31 10:24:38;;;;;;;3.70;3.30;;;16.60;99.90;;;;;;4888972;29;20174;-77
2021/12/31 10:27:09;;;;;;;3.60;3.30;;;16.60;99.90;;;;;;4878207;29;20180;-76
2021/12/31 10:29:49;;;;;;;4.10;2.50;;;16.60;99.90;;;;;;4889114;29;20446;-76
2021/12/31 10:32:16;;;;;;;3.10;2.67;;;16.60;99.90;;;;;;4877275;29;21204;-75
2021/12/31 10:34:41;;;;;;;3.50;2.43;;;16.60;99.90;;;;;;4895146;29;20423;-76
2021/12/31 10:37:16;;;;;;;2.90;2.60;;;16.60;99.90;;;;;;4896480;29;20487;-76
2021/12/31 10:39:42;;;;;;;2.40;2.20;;;16.50;99.90;;;;;;4896929;29;20207;-76
2021/12/31 10:42:13;;;;;;;4.07;2.90;;;16.60;99.90;;;;;;4896431;29;20931;-76
2021/12/31 10:44:51;;;;;;;4.27;3.20;;;16.60;99.90;;;;;;4897006;29;20977;-77
2021/12/31 10:47:22;;;;;;;3.80;2.67;;;16.50;99.90;;;;;;4896717;29;20510;-77
2021/12/31 10:50:00;;;;;;;3.00;2.40;;;16.40;99.90;;;;;;4897004;29;20426;-75
2021/12/31 10:52:33;;;;;;;3.17;2.70;;;16.50;99.90;;;;;;4896795;29;20859;-75
2021/12/31 10:55:02;;;;;;;3.33;2.30;;;16.40;99.90;;;;;;4879934;29;20427;-75
2021/12/31 10:57:35;;;;;;;5.23;3.13;;;16.60;99.90;;;;;;4880153;29;20511;-74
2021/12/31 11:00:01;;;;;;;3.67;2.53;;;16.40;99.90;;;;;;4879040;29;21005;-76
2021/12/31 11:02:27;;;;;;;3.37;2.17;;;16.30;99.90;;;;;;4878715;29;20584;-76
2021/12/31 11:04:54;;;;;;;2.90;2.70;;;16.60;99.90;;;;;;4878531;29;20182;-73
2021/12/31 11:07:19;;;;;;;2.37;2.17;;;16.60;99.90;;;;;;4877434;29;20632;-77
2021/12/31 11:09:46;;;;;;;2.20;2.10;;;16.70;99.90;;;;;;4896481;29;20550;-75
2021/12/31 11:12:14;;;;;;;2.80;2.60;;;16.60;99.90;;;;;;4897006;29;20447;-77
2021/12/31 11:14:40;;;;;;;3.15;2.85;;;16.60;99.90;;;;;;4899078;29;20430;-75
2021/12/31 11:17:06;;;;;;;2.80;2.60;;;16.50;99.90;;;;;;4899853;29;20440;-76
2021/12/31 11:19:32;;;;;;;2.73;2.57;;;16.30;99.90;;;;;;4900438;29;20249;-76
2021/12/31 11:21:58;;;;;;;2.30;1.97;;;16.10;99.90;;;;;;4901120;29;20740;-77
2021/12/31 11:24:37;;;;;;;3.27;2.60;;;15.60;99.90;;;;;;4897240;29;20974;-77
2021/12/31 11:27:27;;;;;;;2.60;2.40;;;15.60;99.90;;;;;;4895792;29;20422;-76
2021/12/31 11:29:54;;;;;;;2.93;2.60;;;15.70;99.90;;;;;;4890617;29;20422;-76
2021/12/31 11:32:42;;;;;;;3.60;2.80;;;15.80;99.90;;;;;;4891632;29;20465;-75
2021/12/31 11:35:28;;;;;;;2.37;2.10;;;15.90;99.90;;;;;;4893861;29;20418;-78
2021/12/31 11:37:54;;;;;;;3.03;2.30;;;15.80;99.90;;;;;;4892987;29;21015;-77
2021/12/31 11:40:41;;;;;;;2.07;1.87;;;15.80;99.90;;;;;;4887494;29;20433;-78
2021/12/31 11:43:20;;;;;;;4.47;2.33;;;15.90;99.90;;;;;;4898304;29;20418;-77
2021/12/31 11:46:19;;;;;;;1.90;1.80;;;15.80;99.90;;;;;;4899652;29;20497;-77
2021/12/31 11:48:45;;;;;;;2.70;2.50;;;16.00;99.90;;;;;;4899728;29;20470;-77
2021/12/31 11:51:11;;;;;;;1.17;1.07;;;15.90;99.90;;;;;;4891805;29;20812;-78
2021/12/31 11:54:00;;;;;;;2.50;2.20;;;15.90;99.90;;;;;;4894482;29;20187;-77
2021/12/31 11:56:38;;;;;;;1.77;1.50;;;16.00;99.90;;;;;;4898722;29;20462;-75
2021/12/31 11:59:06;;;;;;;2.03;1.63;;;15.70;99.90;;;;;;4898505;29;20509;-76
2021/12/31 12:01:43;;;;;;;1.37;1.27;;;15.80;99.90;;;;;;4899260;29;20787;-77
2021/12/31 12:04:26;;;;;;;2.00;1.90;;;15.90;99.90;;;;;;4880271;29;20419;-78
2021/12/31 12:07:23;;;;;;;1.30;1.20;;;16.00;99.90;;;;;;4895469;29;20435;-75
2021/12/31 12:09:48;;;;;;;1.70;1.60;;;16.10;99.90;;;;;;4896562;29;20533;-78
2021/12/31 12:12:23;;;;;;;2.10;1.30;;;16.00;99.90;;;;;;4899950;29;20992;-76
2021/12/31 12:14:51;;;;;;;1.57;1.47;;;16.10;99.90;;;;;;4898672;29;20657;-76
2021/12/31 12:17:28;;;;;;;1.97;1.53;;;16.10;99.90;;;;;;4899383;29;20464;-78
2021/12/31 12:19:57;;;;;;;2.40;1.20;;;16.20;99.90;;;;;;4899061;29;20422;-76
2021/12/31 12:22:25;;;;;;;3.70;1.80;;;16.20;99.90;;;;;;4896110;29;20570;-75
2021/12/31 12:24:55;;;;;;;2.20;2.00;;;16.10;99.90;;;;;;4896110;29;20992;-77
2021/12/31 12:27:22;;;;;;;3.20;2.40;;;16.00;99.90;;;;;;4891930;29;20489;-78
2021/12/31 12:29:49;;;;;;;3.47;2.30;;;15.90;99.90;;;;;;4896974;29;20427;-77
2021/12/31 12:32:16;;;;;;;2.43;2.30;;;15.70;99.90;;;;;;4894188;29;20460;-75
2021/12/31 12:34:42;;;;;;;3.37;3.17;;;15.40;99.90;;;;;;4894076;29;20423;-77
2021/12/31 12:37:08;;;;;;;4.87;3.33;;;15.40;99.90;;;;;;4897057;29;20470;-77
2021/12/31 12:39:34;;;;;;;4.33;2.83;;;15.30;99.90;;;;;;4908287;29;20615;-76
2021/12/31 12:41:59;;;;;;;2.50;2.10;;;15.30;99.90;;;;;;4898071;29;20286;-75
2021/12/31 12:44:25;;;;;;;3.40;2.90;;;15.20;99.90;;;;;;4897030;29;20184;-77
2021/12/31 12:46:55;;;;;;;3.70;3.40;;;15.10;99.90;;;;;;4895422;29;20262;-78
2021/12/31 12:49:21;;;;;;;3.57;2.60;;;15.00;99.90;;;;;;4893167;29;20190;-78
2021/12/31 12:51:48;;;;;;;7.80;3.70;;;15.00;99.90;;;;;;4893363;29;20443;-77
2021/12/31 12:54:21;;;;;;;4.20;3.57;;;14.90;99.90;;;;;;4892174;29;20419;-74
2021/12/31 12:56:47;;;;;;;3.70;3.40;;;14.90;99.90;;;;;;4892611;29;21008;-76
2021/12/31 12:59:20;;;;;;;3.43;3.23;;;14.70;99.90;;;;;;4892576;29;20422;-79
2021/12/31 13:01:46;;;;;;;3.87;3.47;;;14.70;99.90;;;;;;4905995;29;20470;-77
2021/12/31 13:04:14;;;;;;;4.23;3.00;;;14.60;99.90;;;;;;4893968;29;20419;-77
2021/12/31 13:07:07;;;;;;;3.10;2.87;;;14.60;99.90;;;;;;4897593;29;20423;-78
2021/12/31 13:09:34;;;;;;;3.10;2.90;;;14.60;99.90;;;;;;4892437;29;20434;-77
2021/12/31 13:12:02;;;;;;;3.07;2.77;;;14.60;99.90;;;;;;4886725;29;20452;-76
2021/12/31 13:14:36;;;;;;;3.67;3.37;;;14.60;99.90;;;;;;4894345;29;20934;-75
2021/12/31 13:17:02;;;;;;;4.03;3.70;;;14.50;99.90;;;;;;4897630;29;20558;-78
2021/12/31 13:19:33;;;;;;;2.73;2.40;;;14.60;99.90;;;;;;4896654;29;20419;-76
2021/12/31 13:22:05;;;;;;;2.93;2.73;;;14.40;99.90;;;;;;4897352;29;20207;-76
2021/12/31 13:24:31;;;;;;;3.47;3.17;;;14.40;99.90;;;;;;4896387;29;20438;-77
2021/12/31 13:27:03;;;;;;;4.10;2.50;;;14.40;99.90;;;;;;4896669;29;20426;-78
2021/12/31 13:29:33;;;;;;;2.73;2.53;;;14.50;99.90;;;;;;4897633;29;20427;-77
2021/12/31 13:32:18;;;;;;;4.00;2.43;;;14.50;99.90;;;;;;4897146;29;20467;-74
2021/12/31 13:34:52;;;;;;;7.37;2.43;;;14.60;99.90;;;;;;4897242;29;20498;-77
2021/12/31 13:37:33;;;;;;;3.30;2.20;;;14.70;99.90;;;;;;4896972;29;20466;-78
2021/12/31 13:40:08;;;;;;;2.30;1.50;;;14.70;99.90;;;;;;4894045;29;20490;-74
2021/12/31 13:42:34;;;;;;;1.83;1.73;;;14.60;99.90;;;;;;4896796;29;20584;-75
2021/12/31 13:45:00;;;;;;;2.90;1.83;;;14.60;99.90;;;;;;4895404;29;20571;-76
2021/12/31 13:47:26;;;;;;;1.83;1.73;;;14.60;99.90;;;;;;4896545;29;20970;-76
2021/12/31 13:49:55;;;;;;;2.00;1.80;;;14.40;99.90;;;;;;4896179;29;20238;-76
2021/12/31 13:52:31;;;;;;;1.90;1.80;;;14.40;99.90;;;;;;4896536;29;20459;-76
2021/12/31 13:54:59;;;;;;;3.13;1.93;;;14.30;99.90;;;;;;4896319;29;20964;-76
2021/12/31 13:57:28;;;;;;;2.07;1.97;;;14.40;99.90;;;;;;4896650;29;20999;-76
2021/12/31 13:59:55;;;;;;;1.93;1.83;;;14.40;99.90;;;;;;4896374;29;20984;-76
2021/12/31 14:02:25;;;;;;;3.53;1.63;;;14.40;99.90;;;;;;4895376;29;20486;-77
2021/12/31 14:04:54;;;;;;;1.47;1.37;;;14.40;99.90;;;;;;4896095;29;20466;-76
2021/12/31 14:07:45;;;;;;;1.90;1.80;;;14.40;99.90;;;;;;4896644;29;20503;-77
2021/12/31 14:10:20;;;;;;;2.27;2.17;;;14.40;99.90;;;;;;4896499;29;20465;-76
2021/12/31 14:13:06;;;;;;;3.93;1.70;;;14.40;99.90;;;;;;4894883;29;20454;-76
2021/12/31 14:15:49;;;;;;;5.13;2.63;;;14.40;99.90;;;;;;4896408;29;20458;-76
2021/12/31 14:18:15;;;;;;;2.90;2.70;;;14.40;99.90;;;;;;4896407;29;20438;-76
2021/12/31 14:20:44;;;;;;;3.07;2.40;;;14.40;99.90;;;;;;4894740;29;20948;-76
2021/12/31 14:23:12;;;;;;;2.90;2.70;;;14.40;99.90;;;;;;4896204;29;20210;-77
2021/12/31 14:25:44;;;;;;;2.23;2.03;;;14.40;99.90;;;;;;4895971;29;20454;-77
2021/12/31 14:28:11;;;;;;;5.00;2.60;;;14.30;99.90;;;;;;4896450;29;20547;-77
2021/12/31 14:30:38;;;;;;;2.13;1.93;;;14.30;99.90;;;;;;4895640;29;20454;-77
2021/12/31 14:33:04;;;;;;;3.60;2.33;;;14.40;99.90;;;;;;4896137;29;20602;-76
2021/12/31 14:35:35;;;;;;;2.50;2.30;;;14.30;99.90;;;;;;4896101;29;20458;-76
2021/12/31 14:38:03;;;;;;;2.50;2.30;;;14.20;99.90;;;;;;4896377;29;20466;-76
2021/12/31 14:40:29;;;;;;;4.10;3.70;;;14.10;99.90;;;;;;4895150;29;20557;-76
2021/12/31 14:42:55;;;;;;;3.17;2.97;;;14.00;99.90;;;;;;4897048;29;20534;-78
2021/12/31 14:45:22;;;;;;;5.07;4.57;;;13.90;99.90;;;;;;4897466;29;20218;-76
2021/12/31 14:47:48;;;;;;;8.27;5.73;;;13.80;99.90;;;;;;4897579;29;20202;-76
2021/12/31 14:50:16;;;;;;;7.07;4.87;;;13.80;99.90;;;;;;4900313;29;20710;-76
2021/12/31 14:52:43;;;;;;;4.40;3.73;;;13.70;99.90;;;;;;4899691;29;20206;-77
2021/12/31 14:55:14;;;;;;;4.80;4.27;;;13.60;99.90;;;;;;4899841;29;20462;-75
2021/12/31 14:57:41;;;;;;;6.40;5.70;;;13.50;99.90;;;;;;4899890;29;20470;-76
2021/12/31 15:00:12;;;;;;;8.90;6.43;;;13.40;99.90;;;;;;4899676;29;20467;-77
2021/12/31 15:02:38;;;;;;;5.60;4.30;;;13.30;99.90;;;;;;4899563;29;20446;-75
2021/12/31 15:05:05;;;;;;;6.60;4.00;;;13.20;99.90;;;;;;4899625;29;20455;-76
2021/12/31 15:07:30;;;;;;;4.10;3.50;;;13.10;99.90;;;;;;4900318;29;20975;-76
2021/12/31 15:09:56;;;;;;;6.70;3.80;;;12.90;99.90;;;;;;4899567;29;20462;-75
2021/12/31 15:12:23;;;;;;;5.03;3.83;;;12.80;99.90;;;;;;4899760;29;20780;-74
2021/12/31 15:14:56;;;;;;;5.10;3.47;;;12.70;99.90;;;;;;4898090;29;20222;-74
2021/12/31 15:17:22;;;;;;;3.53;3.20;;;12.60;99.90;;;;;;4898607;29;20485;-75
2021/12/31 15:19:47;;;;;;;23.33;14.00;;;12.50;99.90;;;;;;4899265;29;20455;-74
2021/12/31 15:22:13;;;;;;;7.60;5.33;;;12.30;99.90;;;;;;4899500;29;20207;-76
2021/12/31 15:24:38;;;;;;;4.30;3.13;;;12.20;99.90;;;;;;4898945;29;20226;-76
2021/12/31 15:27:04;;;;;;;3.17;2.77;;;12.10;99.90;;;;;;4899454;29;20213;-75
2021/12/31 15:29:30;;;;;;;8.30;3.47;;;11.90;99.90;;;;;;4899331;29;20583;-75
2021/12/31 15:31:56;;;;;;;3.73;2.53;;;11.90;99.90;;;;;;4899198;29;20467;-75
2021/12/31 15:34:22;;;;;;;4.70;3.27;;;11.70;99.90;;;;;;4899061;29;20836;-75
2021/12/31 15:36:48;;;;;;;3.70;3.40;;;11.60;99.90;;;;;;4899020;29;20554;-76
2021/12/31 15:39:14;;;;;;;7.90;4.00;;;11.50;99.90;;;;;;4899544;29;20202;-75
2021/12/31 15:41:44;;;;;;;6.93;6.00;;;11.30;99.90;;;;;;4898879;29;20609;-75
2021/12/31 15:44:11;;;;;;;5.10;4.70;;;11.30;99.90;;;;;;4897157;29;20692;-75
2021/12/31 15:46:38;;;;;;;3.33;3.03;;;11.20;99.90;;;;;;4896984;29;20533;-74
2021/12/31 15:49:04;;;;;;;3.20;3.00;;;11.10;99.90;;;;;;4898995;29;20493;-74
2021/12/31 15:51:32;;;;;;;5.97;2.70;;;10.90;99.90;;;;;;4913146;29;20470;-73
2021/12/31 15:53:59;;;;;;;4.40;2.93;;;10.90;99.90;;;;;;4898511;29;20435;-77
2021/12/31 15:56:24;;;;;;;4.80;3.50;;;10.80;99.90;;;;;;4898628;29;20572;-78
2021/12/31 15:58:50;;;;;;;5.03;3.10;;;10.70;99.90;;;;;;4899338;29;20529;-78
2021/12/31 16:01:16;;;;;;;3.37;3.07;;;10.60;99.90;;;;;;4898571;29;20261;-77
2021/12/31 16:03:41;;;;;;;5.13;3.30;;;10.50;99.90;;;;;;4899130;29;20252;-78
2021/12/31 16:06:07;;;;;;;5.47;3.10;;;10.50;99.90;;;;;;4898912;29;20291;-78
2021/12/31 16:08:34;;;;;;;5.53;3.47;;;10.40;99.90;;;;;;4899827;29;20222;-78
2021/12/31 16:11:01;;;;;;;3.83;3.57;;;10.30;99.90;;;;;;4900754;29;20309;-78
2021/12/31 16:13:27;;;;;;;5.20;3.37;;;10.20;99.90;;;;;;4900325;29;20453;-78
2021/12/31 16:15:54;;;;;;;4.70;3.20;;;10.10;99.90;;;;;;4899827;29;20473;-79
2021/12/31 16:18:20;;;;;;;4.17;3.40;;;10.00;99.90;;;;;;4900770;29;20965;-78
2021/12/31 16:20:45;;;;;;;6.33;3.43;;;9.90;99.90;;;;;;4900165;29;20469;-78
2021/12/31 16:23:11;;;;;;;4.13;3.73;;;9.80;99.90;;;;;;4900286;29;20252;-79
2021/12/31 16:25:38;;;;;;;4.10;3.70;;;9.70;99.90;;;;;;4899911;29;20217;-78
2021/12/31 16:28:04;;;;;;;4.43;4.00;;;9.70;99.90;;;;;;4900163;29;20208;-78
2021/12/31 16:30:30;;;;;;;4.63;4.00;;;9.60;99.90;;;;;;4899696;29;20498;-79
2021/12/31 16:32:55;;;;;;;11.30;5.40;;;9.50;99.90;;;;;;4914702;29;20500;-78
2021/12/31 16:35:21;;;;;;;5.37;4.87;;;9.50;99.90;;;;;;4917194;29;20710;-80
2021/12/31 16:37:47;;;;;;;7.80;6.30;;;9.40;99.90;;;;;;4918873;29;20224;-78
2021/12/31 16:40:15;;;;;;;10.17;7.70;;;9.40;99.90;;;;;;4918154;29;20216;-79
2021/12/31 16:42:41;;;;;;;9.30;7.33;;;9.40;99.90;;;;;;4917804;29;20870;-79
2021/12/31 16:45:08;;;;;;;11.93;8.43;;;9.30;99.90;;;;;;4918318;29;20459;-78
2021/12/31 16:47:34;;;;;;;12.37;8.00;;;9.30;99.90;;;;;;4918377;29;20461;-79
2021/12/31 16:50:00;;;;;;;11.50;7.53;;;9.20;99.90;;;;;;4918056;29;20459;-77
2021/12/31 16:52:25;;;;;;;10.43;7.50;;;9.20;99.90;;;;;;4918476;29;20302;-78
2021/12/31 16:54:51;;;;;;;10.00;7.77;;;9.10;99.90;;;;;;4900972;29;20487;-78
2021/12/31 16:57:16;;;;;;;11.43;7.10;;;9.10;99.90;;;;;;4900103;29;20228;-77
2021/12/31 16:59:42;;;;;;;10.63;7.93;;;9.00;99.90;;;;;;4900150;29;20230;-78
2021/12/31 17:02:11;;;;;;;10.90;6.87;;;9.00;99.90;;;;;;4899355;29;20240;-79
2021/12/31 17:04:38;;;;;;;8.07;5.80;;;8.90;99.90;;;;;;4898452;29;20745;-78
2021/12/31 17:07:04;;;;;;;5.87;5.37;;;8.90;99.90;;;;;;4898763;29;20475;-77
2021/12/31 17:09:29;;;;;;;4.93;4.50;;;8.90;99.90;;;;;;4899579;29;20424;-78
2021/12/31 17:11:55;;;;;;;6.07;4.47;;;8.80;99.90;;;;;;4899551;29;20465;-79
2021/12/31 17:14:20;;;;;;;3.83;3.43;;;8.80;99.90;;;;;;4898473;29;20574;-78
2021/12/31 17:16:47;;;;;;;4.00;3.70;;;8.80;99.90;;;;;;4898908;29;20289;-77
2021/12/31 17:19:13;;;;;;;5.17;4.20;;;8.80;99.90;;;;;;4900780;29;20261;-78
2021/12/31 17:21:38;;;;;;;6.83;5.63;;;8.80;99.90;;;;;;4897950;29;20801;-78
2021/12/31 17:24:05;;;;;;;9.90;7.10;;;8.80;99.90;;;;;;4898006;29;20531;-80